createdAt,value
2023-05-17T00:00:18.585Z,17.90
2023-05-17T00:02:45.072Z,14.23
2023-05-17T00:05:14.153Z,19.13
2023-05-17T00:07:40.721Z,17.50
2023-05-17T00:10:07.710Z,14.48
2023-05-17T00:12:34.603Z,16.55
2023-05-17T00:15:01.150Z,19.23
2023-05-17T00:17:27.665Z,14.02
2023-05-17T00:19:54.128Z,14.48
2023-05-17T00:22:20.649Z,17.20
2023-05-17T00:24:47.118Z,22.38
2023-05-17T00:27:14.130Z,15.40
2023-05-17T00:29:41.229Z,18.73
2023-05-17T00:32:07.820Z,15.43
2023-05-17T00:34:34.303Z,16.17
2023-05-17T00:37:00.848Z,19.02
2023-05-17T00:39:27.348Z,16.95
2023-05-17T00:41:53.859Z,19.67
2023-05-17T00:44:20.381Z,21.67
2023-05-17T00:46:46.887Z,20.48
2023-05-17T00:49:13.437Z,19.27
2023-05-17T00:51:40.538Z,16.13
2023-05-17T00:54:07.062Z,15.68
2023-05-17T00:56:33.630Z,18.52
2023-05-17T00:59:04.901Z,17.98
2023-05-17T01:01:31.710Z,15.88
2023-05-17T01:03:58.219Z,18.45
2023-05-17T01:06:24.933Z,17.40
2023-05-17T01:08:51.750Z,19.83
2023-05-17T01:11:31.451Z,18.85
2023-05-17T01:14:38.221Z,17.25
2023-05-17T01:17:12.350Z,17.90
2023-05-17T01:22:47.348Z,16.73
2023-05-17T01:25:42.495Z,17.08
2023-05-17T01:28:10.629Z,18.40
2023-05-17T01:30:38.413Z,19.83
2023-05-17T01:33:05.984Z,18.27
2023-05-17T01:35:33.060Z,14.80
2023-05-17T01:37:59.628Z,17.75
2023-05-17T01:40:26.308Z,17.45
2023-05-17T01:42:58.162Z,12.88
2023-05-17T01:45:30.697Z,16.70
2023-05-17T01:48:23.671Z,17.75
2023-05-17T01:50:53.070Z,21.50
2023-05-17T01:53:40.462Z,18.08
2023-05-17T01:56:10.626Z,18.08
2023-05-17T01:58:46.744Z,18.23
2023-05-17T02:01:15.736Z,18.02
2023-05-17T02:03:42.790Z,18.20
2023-05-17T02:06:09.302Z,20.23
2023-05-17T02:08:35.810Z,22.40
2023-05-17T02:11:02.342Z,16.98
2023-05-17T02:13:30.706Z,19.38
2023-05-17T02:16:03.513Z,17.17
2023-05-17T02:18:30.825Z,19.85
2023-05-17T02:20:57.388Z,20.00
2023-05-17T02:23:24.990Z,23.05
2023-05-17T02:25:52.557Z,19.88
2023-05-17T02:28:19.076Z,16.17
2023-05-17T02:30:46.097Z,17.45
2023-05-17T02:33:13.350Z,15.00
2023-05-17T02:35:39.944Z,19.25
2023-05-17T02:38:06.523Z,15.80
2023-05-17T02:40:32.986Z,14.95
2023-05-17T02:43:02.114Z,15.18
2023-05-17T02:45:28.768Z,21.40
2023-05-17T02:47:55.649Z,16.88
2023-05-17T02:50:22.215Z,19.23
2023-05-17T02:52:48.735Z,18.88
2023-05-17T02:55:15.470Z,14.65
2023-05-17T02:57:41.984Z,18.05
2023-05-17T03:00:09.529Z,17.45
2023-05-17T03:02:36.381Z,14.82
2023-05-17T03:05:04.985Z,19.52
2023-05-17T03:07:32.107Z,15.17
2023-05-17T03:09:58.650Z,16.25
2023-05-17T03:12:29.656Z,19.10
2023-05-17T03:14:57.156Z,18.70
2023-05-17T03:17:24.221Z,22.65
2023-05-17T03:19:50.779Z,18.45
2023-05-17T03:22:17.443Z,11.60
2023-05-17T03:24:43.935Z,14.85
2023-05-17T03:27:10.652Z,14.60
2023-05-17T03:29:37.200Z,20.23
2023-05-17T03:32:04.812Z,18.88
2023-05-17T03:34:31.522Z,14.00
2023-05-17T03:36:58.349Z,22.63
2023-05-17T03:39:24.936Z,20.88
2023-05-17T03:41:51.421Z,17.13
2023-05-17T03:44:18.196Z,18.10
2023-05-17T03:46:44.806Z,18.98
2023-05-17T03:49:11.779Z,15.00
2023-05-17T03:51:38.976Z,16.77
2023-05-17T03:54:06.164Z,16.73
2023-05-17T03:56:33.016Z,19.05
2023-05-17T03:58:59.493Z,13.57
2023-05-17T04:01:26.721Z,21.17
2023-05-17T04:03:53.415Z,17.50
2023-05-17T04:06:21.492Z,19.83
2023-05-17T04:08:48.013Z,17.15
2023-05-17T04:11:14.451Z,18.77
2023-05-17T04:13:42.167Z,16.73
2023-05-17T04:16:10.070Z,16.33
2023-05-17T04:18:39.152Z,16.02
2023-05-17T04:21:06.188Z,17.48
2023-05-17T04:23:34.863Z,14.75
2023-05-17T04:26:03.216Z,15.60
2023-05-17T04:28:32.426Z,15.40
2023-05-17T04:30:58.895Z,13.82
2023-05-17T04:33:26.814Z,12.60
2023-05-17T04:35:56.792Z,19.40
2023-05-17T04:38:24.864Z,15.32
2023-05-17T04:40:51.435Z,12.93
2023-05-17T04:43:18.519Z,14.60
2023-05-17T04:45:46.524Z,18.17
2023-05-17T04:48:13.360Z,20.08
2023-05-17T04:50:39.997Z,18.83
2023-05-17T04:53:06.506Z,14.57
2023-05-17T04:55:35.908Z,17.83
2023-05-17T04:58:02.452Z,13.30
2023-05-17T05:00:30.013Z,13.88
2023-05-17T05:03:04.665Z,14.85
2023-05-17T05:05:31.553Z,15.75
2023-05-17T05:07:58.565Z,18.42
2023-05-17T05:10:25.116Z,19.13
2023-05-17T05:12:51.963Z,20.33
2023-05-17T05:15:19.088Z,13.05
2023-05-17T05:17:52.262Z,14.18
2023-05-17T05:20:20.056Z,12.68
2023-05-17T05:22:46.561Z,17.77
2023-05-17T05:25:14.261Z,14.38
2023-05-17T05:27:40.727Z,12.32
2023-05-17T05:30:08.571Z,19.33
2023-05-17T05:32:37.857Z,18.52
2023-05-17T05:35:05.657Z,18.70
2023-05-17T05:37:32.177Z,16.90
2023-05-17T05:39:59.433Z,15.27
2023-05-17T05:42:27.559Z,18.50
2023-05-17T05:44:54.155Z,19.05
2023-05-17T05:47:22.185Z,20.63
2023-05-17T05:49:48.772Z,20.60
2023-05-17T05:52:15.248Z,13.85
2023-05-17T05:54:42.462Z,16.90
2023-05-17T05:57:09.024Z,17.60
2023-05-17T05:59:35.605Z,18.67
2023-05-17T06:02:02.486Z,14.45
2023-05-17T06:04:36.832Z,20.77
2023-05-17T06:07:10.908Z,18.08
2023-05-17T06:09:37.367Z,16.30
2023-05-17T06:12:03.971Z,15.57
2023-05-17T06:14:30.548Z,15.57
2023-05-17T06:16:56.959Z,19.58
2023-05-17T06:19:23.644Z,20.23
2023-05-17T06:21:50.251Z,19.30
2023-05-17T06:24:16.950Z,21.42
2023-05-17T06:26:47.165Z,20.83
2023-05-17T06:29:13.721Z,17.58
2023-05-17T06:31:40.359Z,19.40
2023-05-17T06:34:06.955Z,17.55
2023-05-17T06:36:35.949Z,15.50
2023-05-17T06:39:04.117Z,14.15
2023-05-17T06:41:30.693Z,16.17
2023-05-17T06:43:57.225Z,16.55
2023-05-17T06:46:23.687Z,17.70
2023-05-17T06:48:51.398Z,14.32
2023-05-17T06:51:18.220Z,13.25
2023-05-17T06:53:44.827Z,16.38
2023-05-17T06:56:11.399Z,19.88
2023-05-17T06:58:37.863Z,15.82
2023-05-17T07:01:04.482Z,16.27
2023-05-17T07:03:31.093Z,13.55
2023-05-17T07:05:57.764Z,15.38
2023-05-17T07:08:24.286Z,12.02
2023-05-17T07:10:52.258Z,13.23
2023-05-17T07:13:19.040Z,13.43
2023-05-17T07:15:46.111Z,12.90
2023-05-17T07:18:15.175Z,12.20
2023-05-17T07:20:41.753Z,16.88
2023-05-17T07:23:08.424Z,19.73
2023-05-17T07:25:38.530Z,14.48
2023-05-17T07:28:05.253Z,11.73
2023-05-17T07:30:31.771Z,18.65
2023-05-17T07:32:58.300Z,13.13
2023-05-17T07:35:24.817Z,13.52
2023-05-17T07:37:51.415Z,11.73
2023-05-17T07:40:18.380Z,14.43
2023-05-17T07:42:44.880Z,13.02
2023-05-17T07:45:11.515Z,12.15
2023-05-17T07:47:38.086Z,15.15
2023-05-17T07:50:05.218Z,15.05
2023-05-17T07:52:31.720Z,15.38
2023-05-17T07:54:58.278Z,13.55
2023-05-17T07:57:24.856Z,15.90
2023-05-17T07:59:51.456Z,13.80
2023-05-17T08:02:17.973Z,12.90
2023-05-17T08:04:45.202Z,16.38
2023-05-17T08:07:12.159Z,16.30
2023-05-17T08:09:40.217Z,14.52
2023-05-17T08:12:06.776Z,12.30
2023-05-17T08:14:33.286Z,12.95
2023-05-17T08:16:59.734Z,15.63
2023-05-17T08:19:26.704Z,14.65
2023-05-17T08:21:53.303Z,14.05
2023-05-17T08:24:19.770Z,13.77
2023-05-17T08:26:46.242Z,10.48
2023-05-17T08:29:12.683Z,10.30
2023-05-17T08:31:39.249Z,14.57
2023-05-17T08:34:05.944Z,13.50
2023-05-17T08:36:32.515Z,10.80
2023-05-17T08:38:59.030Z,13.48
2023-05-17T08:41:25.525Z,13.23
2023-05-17T08:43:52.810Z,10.68
2023-05-17T08:46:21.660Z,12.43
2023-05-17T08:48:51.923Z,15.25
2023-05-17T08:51:19.603Z,13.70
2023-05-17T08:53:47.516Z,14.25
2023-05-17T08:56:16.484Z,13.65
2023-05-17T08:58:56.158Z,13.27
2023-05-17T09:01:26.068Z,12.05
2023-05-17T09:03:53.828Z,12.98
2023-05-17T09:06:21.587Z,11.23
2023-05-17T09:08:52.623Z,12.90
2023-05-17T09:11:27.847Z,13.18
2023-05-17T09:13:58.715Z,14.68
2023-05-17T09:16:26.535Z,12.95
2023-05-17T09:18:57.358Z,12.13
2023-05-17T09:21:25.129Z,14.02
2023-05-17T09:24:02.253Z,10.57
2023-05-17T09:26:43.845Z,11.23
2023-05-17T09:29:15.495Z,16.23
2023-05-17T09:31:43.262Z,12.45
2023-05-17T09:34:10.464Z,17.88
2023-05-17T09:36:38.569Z,19.92
2023-05-17T09:39:10.687Z,16.20
2023-05-17T09:41:48.200Z,17.27
2023-05-17T09:44:16.352Z,10.40
2023-05-17T09:46:45.406Z,11.65
2023-05-17T09:49:12.815Z,13.82
2023-05-17T09:51:44.649Z,13.52
2023-05-17T09:54:12.014Z,9.50
2023-05-17T09:56:39.124Z,12.07
2023-05-17T09:59:12.417Z,13.93
2023-05-17T10:01:41.302Z,13.23
2023-05-17T10:04:12.002Z,13.25
2023-05-17T10:06:46.399Z,12.73
2023-05-17T10:09:15.728Z,13.05
2023-05-17T10:11:47.362Z,15.93
2023-05-17T10:14:23.230Z,16.30
2023-05-17T10:16:51.966Z,14.75
2023-05-17T10:19:20.820Z,11.90
2023-05-17T10:21:52.628Z,11.18
2023-05-17T10:24:21.595Z,11.63
2023-05-17T10:26:50.430Z,12.10
2023-05-17T10:29:17.227Z,12.43
2023-05-17T10:31:45.237Z,12.43
2023-05-17T10:34:15.775Z,12.52
2023-05-17T10:36:43.855Z,13.68
2023-05-17T10:39:11.340Z,14.63
2023-05-17T10:41:42.124Z,16.85
2023-05-17T10:44:12.279Z,13.50
2023-05-17T10:46:39.159Z,15.98
2023-05-17T10:49:06.140Z,13.18
2023-05-17T10:51:34.849Z,14.93
2023-05-17T10:54:12.284Z,12.70
2023-05-17T10:56:47.309Z,12.85
2023-05-17T10:59:24.359Z,10.43
2023-05-17T11:02:10.071Z,9.60
2023-05-17T11:04:44.871Z,9.40
2023-05-17T11:07:18.938Z,12.07
2023-05-17T11:10:03.604Z,9.75
2023-05-17T11:12:40.404Z,13.82
2023-05-17T11:15:17.282Z,14.95
2023-05-17T11:17:44.130Z,10.35
2023-05-17T11:20:31.942Z,11.93
2023-05-17T11:23:16.754Z,9.15
2023-05-17T11:28:22.028Z,11.55
2023-05-17T11:30:52.086Z,9.02
2023-05-17T11:33:32.486Z,10.65
2023-05-17T11:36:06.881Z,12.82
2023-05-17T11:38:34.294Z,12.27
2023-05-17T11:41:26.678Z,11.60
2023-05-17T11:43:54.405Z,13.13
2023-05-17T11:46:24.052Z,12.60
2023-05-17T11:48:52.461Z,13.25
2023-05-17T11:51:21.318Z,13.57
2023-05-17T11:53:49.662Z,11.65
2023-05-17T11:56:16.367Z,12.25
2023-05-17T11:58:43.620Z,8.73
2023-05-17T12:01:13.519Z,12.10
2023-05-17T12:03:40.029Z,12.43
2023-05-17T12:06:07.725Z,12.65
2023-05-17T12:08:35.352Z,9.95
2023-05-17T12:11:02.822Z,9.30
2023-05-17T12:13:30.526Z,10.15
2023-05-17T12:16:02.456Z,8.02
2023-05-17T12:18:49.560Z,12.57
2023-05-17T12:21:18.117Z,7.22
2023-05-17T12:23:48.325Z,8.07
2023-05-17T12:26:18.076Z,8.68
2023-05-17T12:28:56.115Z,12.02
2023-05-17T12:31:28.214Z,10.05
2023-05-17T12:33:55.021Z,7.85
2023-05-17T12:36:22.509Z,8.43
2023-05-17T12:38:49.544Z,9.50
2023-05-17T12:41:16.872Z,8.15
2023-05-17T12:43:46.671Z,9.32
2023-05-17T12:46:18.948Z,8.93
2023-05-17T12:48:46.861Z,7.57
2023-05-17T12:51:15.855Z,7.65
2023-05-17T12:53:44.271Z,10.23
2023-05-17T12:56:19.480Z,10.10
2023-05-17T12:59:17.251Z,6.88
2023-05-17T13:01:46.906Z,7.88
2023-05-17T13:04:14.914Z,10.25
2023-05-17T13:06:53.201Z,10.85
2023-05-17T13:09:22.002Z,7.75
2023-05-17T13:11:58.991Z,7.35
2023-05-17T13:14:46.235Z,7.78
2023-05-17T13:17:24.118Z,6.30
2023-05-17T13:19:50.799Z,8.15
2023-05-17T13:22:17.495Z,5.63
2023-05-17T13:24:44.815Z,7.22
2023-05-17T13:27:12.145Z,6.85
2023-05-17T13:29:41.560Z,7.82
2023-05-17T13:32:10.083Z,7.55
2023-05-17T13:34:37.016Z,8.63
2023-05-17T13:37:04.689Z,10.27
2023-05-17T13:39:31.139Z,8.60
2023-05-17T13:41:57.869Z,9.30
2023-05-17T13:44:24.881Z,7.57
2023-05-17T13:46:51.409Z,7.07
2023-05-17T13:49:18.252Z,10.50
2023-05-17T13:51:45.053Z,5.15
2023-05-17T13:54:11.680Z,9.30
2023-05-17T13:56:38.583Z,8.90
2023-05-17T13:59:05.217Z,7.43
2023-05-17T14:01:31.677Z,16.63
2023-05-17T14:03:59.016Z,11.77
2023-05-17T14:06:25.677Z,9.07
2023-05-17T14:08:53.848Z,9.48
2023-05-17T14:11:21.106Z,10.85
2023-05-17T14:13:47.556Z,10.57
2023-05-17T14:16:14.531Z,13.20
2023-05-17T14:18:41.207Z,9.65
2023-05-17T14:21:08.281Z,7.03
2023-05-17T14:23:35.047Z,5.32
2023-05-17T14:26:02.830Z,9.07
2023-05-17T14:28:29.411Z,10.63
2023-05-17T14:30:56.212Z,10.13
2023-05-17T14:33:22.820Z,11.95
2023-05-17T14:35:49.366Z,8.80
2023-05-17T14:38:15.913Z,14.43
2023-05-17T14:40:42.373Z,9.88
2023-05-17T14:43:08.814Z,8.75
2023-05-17T14:45:35.395Z,12.52
2023-05-17T14:48:01.878Z,11.55
2023-05-17T14:50:28.585Z,6.50
2023-05-17T14:52:55.201Z,5.75
2023-05-17T14:55:21.640Z,8.80
2023-05-17T14:57:48.113Z,8.15
2023-05-17T15:00:14.764Z,10.85
2023-05-17T15:02:41.366Z,9.02
2023-05-17T15:05:08.312Z,11.00
2023-05-17T15:07:34.985Z,8.57
2023-05-17T15:10:03.449Z,12.45
2023-05-17T15:12:30.294Z,8.50
2023-05-17T15:14:57.322Z,7.63
2023-05-17T15:17:24.188Z,9.73
2023-05-17T15:19:51.410Z,9.63
2023-05-17T15:22:18.160Z,7.95
2023-05-17T15:24:44.916Z,13.65
2023-05-17T15:27:15.338Z,8.68
2023-05-17T15:29:42.320Z,13.52
2023-05-17T15:32:09.394Z,9.15
2023-05-17T15:34:36.577Z,9.07
2023-05-17T15:37:03.111Z,11.32
2023-05-17T15:39:29.915Z,12.18
2023-05-17T15:41:56.416Z,11.43
2023-05-17T15:44:23.916Z,12.48
2023-05-17T15:46:50.787Z,10.05
2023-05-17T15:49:17.320Z,11.95
2023-05-17T15:51:43.805Z,9.38
2023-05-17T15:54:10.339Z,11.63
2023-05-17T15:56:38.329Z,12.27
2023-05-17T15:59:05.639Z,10.75
2023-05-17T16:01:32.437Z,10.68
2023-05-17T16:03:58.916Z,10.07
2023-05-17T16:06:25.777Z,9.82
2023-05-17T16:08:52.333Z,11.65
2023-05-17T16:11:18.790Z,9.57
2023-05-17T16:13:45.620Z,11.48
2023-05-17T16:16:13.414Z,13.05
2023-05-17T16:18:40.252Z,12.95
2023-05-17T16:21:07.827Z,7.63
2023-05-17T16:23:34.354Z,9.40
2023-05-17T16:26:00.867Z,13.32
2023-05-17T16:28:27.405Z,10.65
2023-05-17T16:30:54.483Z,12.20
2023-05-17T16:33:21.233Z,10.55
2023-05-17T16:35:48.609Z,11.50
2023-05-17T16:38:15.273Z,12.38
2023-05-17T16:40:41.740Z,11.45
2023-05-17T16:43:08.636Z,8.95
2023-05-17T16:45:35.174Z,10.02
2023-05-17T16:48:01.684Z,11.93
2023-05-17T16:50:28.429Z,11.15
2023-05-17T16:52:55.023Z,12.15
2023-05-17T16:55:21.525Z,11.02
2023-05-17T16:57:47.970Z,10.15
2023-05-17T17:00:14.887Z,12.00
2023-05-17T17:02:41.412Z,14.90
2023-05-17T17:05:08.282Z,9.98
2023-05-17T17:07:34.738Z,11.90
2023-05-17T17:10:01.269Z,13.07
2023-05-17T17:12:27.802Z,11.00
2023-05-17T17:14:54.278Z,13.55
2023-05-17T17:17:21.346Z,14.00
2023-05-17T17:19:47.790Z,12.75
2023-05-17T17:22:15.010Z,11.77
2023-05-17T17:24:41.802Z,9.52
2023-05-17T17:27:08.275Z,11.50
2023-05-17T17:29:34.886Z,11.25
2023-05-17T17:32:01.487Z,11.35
2023-05-17T17:34:28.227Z,11.25
2023-05-17T17:36:54.684Z,12.55
2023-05-17T17:39:22.181Z,11.00
2023-05-17T17:41:48.659Z,12.30
2023-05-17T17:44:15.188Z,9.95
2023-05-17T17:46:41.790Z,11.90
2023-05-17T17:49:08.287Z,7.13
2023-05-17T17:51:34.873Z,11.68
2023-05-17T17:54:03.684Z,12.45
2023-05-17T17:56:30.207Z,6.75
2023-05-17T17:58:57.109Z,7.93
2023-05-17T18:01:23.646Z,10.38
2023-05-17T18:03:50.154Z,10.15
2023-05-17T18:06:16.598Z,14.27
2023-05-17T18:08:43.162Z,10.25
2023-05-17T18:11:09.637Z,8.57
2023-05-17T18:13:36.293Z,14.50
2023-05-17T18:16:02.877Z,9.60
2023-05-17T18:18:30.479Z,11.80
2023-05-17T18:20:57.010Z,11.45
2023-05-17T18:23:24.585Z,8.13
2023-05-17T18:25:51.159Z,9.77
2023-05-17T18:28:21.648Z,14.73
2023-05-17T18:30:53.320Z,9.85
2023-05-17T18:33:19.847Z,11.68
2023-05-17T18:35:46.372Z,9.00
2023-05-17T18:38:12.883Z,7.72
2023-05-17T18:40:39.385Z,8.48
2023-05-17T18:43:06.009Z,9.07
2023-05-17T18:45:36.231Z,7.57
2023-05-17T18:48:03.487Z,9.93
2023-05-17T18:50:30.378Z,12.05
2023-05-17T18:52:57.312Z,11.02
2023-05-17T18:55:23.845Z,10.45
2023-05-17T18:57:50.855Z,8.05
2023-05-17T19:00:17.681Z,7.28
2023-05-17T19:02:44.164Z,10.02
2023-05-17T19:05:10.671Z,9.15
2023-05-17T19:07:37.113Z,13.65
2023-05-17T19:10:04.414Z,10.07
2023-05-17T19:12:31.169Z,11.82
2023-05-17T19:14:57.986Z,11.73
2023-05-17T19:17:24.591Z,11.98
2023-05-17T19:19:51.088Z,10.98
2023-05-17T19:22:17.560Z,8.13
2023-05-17T19:24:44.201Z,8.65
2023-05-17T19:27:11.160Z,10.38
2023-05-17T19:29:37.710Z,9.82
2023-05-17T19:32:04.575Z,9.23
2023-05-17T19:34:31.170Z,8.55
2023-05-17T19:36:58.685Z,10.45
2023-05-17T19:39:25.540Z,9.02
2023-05-17T19:41:51.990Z,10.93
2023-05-17T19:44:18.445Z,14.60
2023-05-17T19:46:45.036Z,10.18
2023-05-17T19:49:12.742Z,11.23
2023-05-17T19:51:39.312Z,11.30
2023-05-17T19:54:06.133Z,8.93
2023-05-17T19:56:32.611Z,11.40
2023-05-17T19:58:59.110Z,10.25
2023-05-17T20:01:26.036Z,11.43
2023-05-17T20:03:52.764Z,9.00
2023-05-17T20:06:19.312Z,10.52
2023-05-17T20:08:46.761Z,9.57
2023-05-17T20:11:13.416Z,10.63
2023-05-17T20:13:40.358Z,10.00
2023-05-17T20:16:12.468Z,12.27
2023-05-17T20:18:42.588Z,10.25
2023-05-17T20:21:10.898Z,13.40
2023-05-17T20:23:37.409Z,10.10
2023-05-17T20:26:04.401Z,11.02
2023-05-17T20:28:30.880Z,12.43
2023-05-17T20:30:57.438Z,11.27
2023-05-17T20:33:26.683Z,13.10
2023-05-17T20:35:53.896Z,9.35
2023-05-17T20:38:21.816Z,8.93
2023-05-17T20:40:48.476Z,10.93
2023-05-17T20:43:16.615Z,9.40
2023-05-17T20:45:43.506Z,8.98
2023-05-17T20:48:10.098Z,10.80
2023-05-17T20:50:36.981Z,11.57
2023-05-17T20:53:03.634Z,9.55
2023-05-17T20:55:30.230Z,11.18
2023-05-17T20:57:56.927Z,8.45
2023-05-17T21:00:24.760Z,8.93
2023-05-17T21:02:51.395Z,10.45
2023-05-17T21:05:17.949Z,11.75
2023-05-17T21:07:46.602Z,12.02
2023-05-17T21:10:13.255Z,10.30
2023-05-17T21:12:39.822Z,10.95
2023-05-17T21:15:15.897Z,7.82
2023-05-17T21:17:43.783Z,10.65
2023-05-17T21:20:11.105Z,12.30
2023-05-17T21:22:37.781Z,6.78
2023-05-17T21:25:04.961Z,8.38
2023-05-17T21:27:33.616Z,5.45
2023-05-17T21:30:01.057Z,10.07
2023-05-17T21:32:27.572Z,8.65
2023-05-17T21:34:54.508Z,9.30
2023-05-17T21:37:21.179Z,9.63
2023-05-17T21:39:47.627Z,11.07
2023-05-17T21:42:14.094Z,10.02
2023-05-17T21:44:40.823Z,10.02
2023-05-17T21:47:07.494Z,8.90
2023-05-17T21:49:34.148Z,11.52
2023-05-17T21:52:00.772Z,8.80
2023-05-17T21:54:27.379Z,9.90
2023-05-17T21:56:53.844Z,9.90
2023-05-17T21:59:20.309Z,11.18
2023-05-17T22:01:46.996Z,11.38
2023-05-17T22:04:13.591Z,9.45
2023-05-17T22:06:40.051Z,8.48
2023-05-17T22:09:06.758Z,11.23
2023-05-17T22:11:33.890Z,8.00
2023-05-17T22:14:00.395Z,10.20
2023-05-17T22:16:26.993Z,7.15
2023-05-17T22:18:53.562Z,8.02
2023-05-17T22:21:20.215Z,11.95
2023-05-17T22:23:46.689Z,8.73
2023-05-17T22:26:13.262Z,12.77
2023-05-17T22:28:39.720Z,9.43
2023-05-17T22:31:07.596Z,11.52
2023-05-17T22:33:35.629Z,9.95
2023-05-17T22:36:03.603Z,10.68
2023-05-17T22:38:30.076Z,6.63
2023-05-17T22:40:56.587Z,9.90
2023-05-17T22:43:23.094Z,9.30
2023-05-17T22:45:49.995Z,9.20
2023-05-17T22:48:16.520Z,9.27
2023-05-17T22:50:43.060Z,9.85
2023-05-17T22:53:11.265Z,8.73
2023-05-17T22:55:37.732Z,8.70
2023-05-17T22:58:04.176Z,6.47
2023-05-17T23:00:30.645Z,7.68
2023-05-17T23:02:57.147Z,7.85
2023-05-17T23:05:23.692Z,6.53
2023-05-17T23:07:50.152Z,8.65
2023-05-17T23:10:16.649Z,8.23
2023-05-17T23:12:43.156Z,10.57
2023-05-17T23:15:10.580Z,7.63
2023-05-17T23:17:38.807Z,9.20
2023-05-17T23:20:08.244Z,9.07
2023-05-17T23:22:34.753Z,7.65
2023-05-17T23:25:03.373Z,10.13
2023-05-17T23:27:30.128Z,9.65
2023-05-17T23:29:57.224Z,8.27
2023-05-17T23:32:23.803Z,11.32
2023-05-17T23:34:50.730Z,9.73
2023-05-17T23:37:17.245Z,10.80
2023-05-17T23:39:43.892Z,10.43
2023-05-17T23:42:10.748Z,9.93
2023-05-17T23:44:43.045Z,8.35
2023-05-17T23:47:12.432Z,9.38
2023-05-17T23:49:39.392Z,9.43
2023-05-17T23:52:10.917Z,11.27
2023-05-17T23:54:41.430Z,10.77
2023-05-17T23:57:08.692Z,15.65
2023-05-17T23:59:36.512Z,8.93
